Ellenwood, Georgia
Current Conditions -  °F | °C
As of 4:52 PM on Wednesday 28 Jan 2015 (Local Time) from KATL Reporting Station
Few Clouds Few Clouds  
Wind Chill: 55°   Ceiling: Unl
Heat Index: 55°   Visibility: 10mi
Dew Point: 21°   Wind: 0mph
Humidity: 27%   Direction: NA
Pressure: 30.22"   Gusts: NA
Location:  33.61°N, 84.29°W
Report Text: KATL 282152Z 00000KT 10SM FEW250 13/M06 A3022 RMK AO2 SLP239 T01281061
Loading
Personal Weather Stations






























Interactive Weather Map New forecast layout! Learn more

10-Day Weather Forecast

Advertisements
Track Severe Weather on mobile